Nearby METAR Reports

 

KAPA - Denver/Arapahoe, Colorado, USA
Distance from station: ENE 3mi, 4km
Updated: Thu, 08/16/2018 8:53pm MDT
Partly cloudy
Partly cloudy
 Wind from WSW
Wind: WSW 15 mph , 24 km/h
Temperature: 75°F , 24°C
Dew Point: 45°F , 7°C
Humidity: 34%
Barometer: 30.27 inHg , 1025.1 hPa
Clouds: Partly cloudy
Visibility: 10 miles , 16 km
Cloud details: Few Clouds 11000 ft
Few Clouds 14000 ft
Partly cloudy 22000 ft
2018/08/17 02:53 KAPA 170253Z 25013KT 10SM FEW110 FEW140 SCT220 24/07 A3027 RMK AO2 SLP175 T02390072 53011
KBKF - Buckley Angb/Den, Colorado, USA
Distance from station: NE 14mi, 22km
Updated: Thu, 08/16/2018 8:58pm MDT
Few Clouds
Few Clouds
 Wind from SSW
Wind: SSW 10 mph , 17 km/h
Temperature: 75°F , 24°C
Dew Point: 46°F , 8°C
Humidity: 36%
Barometer: 30.25 inHg , 1024.4 hPa
Clouds: Few Clouds
Visibility: 10 miles , 16 km
Cloud details: Few Clouds 20000 ft
2018/08/17 02:58 KBKF 170258Z 21009KT 10SM FEW200 24/08 A3025 RMK AO2A SLP168 T02430083 52009
 
KDEN - Denver (dia), Colorado, USA
Distance from station: NNE 24mi, 39km
Updated: Thu, 08/16/2018 8:53pm MDT
Mostly cloudy
Mostly cloudy
 Wind from SSE
Wind: SSE 9 mph , 15 km/h
Temperature: 73°F , 23°C
Dew Point: 52°F , 11°C
Humidity: 47%
Barometer: 30.22 inHg , 1023.4 hPa
Clouds: Mostly cloudy
Visibility: 10 miles , 16 km
Cloud details: Partly cloudy 12000 ft
Mostly cloudy 15000 ft
2018/08/17 02:53 KDEN 170253Z 15008KT 10SM SCT120 BKN150 23/11 A3022 RMK AO2 SLP160 T02280111 53008
KFTG - Denver F. Range, Colorado, USA
Distance from station: NE 24mi, 39km
Updated: Thu, 08/16/2018 8:47pm MDT
Mostly cloudy
Mostly cloudy
 Wind from SE
Wind: SE 10 mph , 17 km/h
Temperature: 77°F , 25°C
Dew Point: 46°F , 8°C
Humidity: 34%
Barometer: 30.25 inHg , 1024.4 hPa
Clouds: Mostly cloudy
Visibility: 10 miles , 16 km
Cloud details: Partly cloudy 12000 ft
Mostly cloudy 22000 ft
2018/08/17 02:47 KFTG 170247Z 14009KT 10SM SCT120 BKN220 25/08 A3025
 
KBJC - Broomfield/Jeffc, Colorado, USA
Distance from station: NNW 26mi, 42km
Updated: Thu, 08/16/2018 8:45pm MDT
Mostly cloudy
Mostly cloudy
 Wind from WSW
Wind: WSW 8 mph , 13 km/h
Temperature: 77°F , 25°C
Dew Point: 41°F , 5°C
Humidity: 28%
Barometer: 30.25 inHg , 1024.4 hPa
Clouds: Mostly cloudy
Visibility: 10 miles , 16 km
Cloud details: Mostly cloudy 15000 ft
2018/08/17 02:45 KBJC 170245Z 24007KT 10SM BKN150 25/05 A3025
KMNH - Monument/Elbert, Colorado, USA
Distance from station: SSE 27mi, 43km
Updated: Thu, 08/16/2018 9:30pm MDT
Clear
Clear
 Wind from S
Wind: S 6 mph , 9 km/h
Temperature: 59°F , 15°C
Dew Point: 46°F , 8°C
Humidity: 63%
Barometer: 30.40 inHg , 1029.5 hPa
Clouds: Clear
Visibility: 10 miles , 16 km
2018/08/17 03:30 KMNH 170330Z AUTO 19005KT 10SM CLR 15/08 A3040 RMK AO2
 
KEIK - Erie Muni, Colorado, USA
Distance from station: NNW 33mi, 53km
Updated: Thu, 08/16/2018 9:31pm MDT
Clear
Clear
 Wind from calm
Wind: Calm
Temperature: 73°F , 23°C
Dew Point: 46°F , 8°C
Humidity: 38%
Barometer: 30.26 inHg , 1024.7 hPa
Clouds: Clear
Visibility: 10 miles , 16 km
2018/08/17 03:31 KEIK 170331Z AUTO 00000KT 10SM CLR 23/08 A3026 RMK AO2 T02310083
KBDU - Boulder Muni, Colorado, USA
Distance from station: NNW 38mi, 60km
Updated: Thu, 08/16/2018 9:36pm MDT
Clear
Clear
 Wind from calm
Wind: Calm
Temperature: 73°F , 23°C
Dew Point: 46°F , 8°C
Humidity: 38%
Barometer: 30.22 inHg , 1023.4 hPa
Clouds: Clear
Visibility: 10 miles , 16 km
2018/08/17 03:36 KBDU 170336Z AUTO 00000KT 10SM CLR 23/08 A3022 RMK AO2
 
KAFF - Usaf Academy/Cos, Colorado, USA
Distance from station: S 41mi, 66km
Updated: Thu, 08/16/2018 8:56pm MDT
Overcast
Overcast
 Wind from calm
Wind: Calm
Temperature: 68°F , 20°C
Dew Point: 46°F , 8°C
Humidity: 46%
Barometer: 30.33 inHg , 1027.1 hPa
Clouds: Overcast
Visibility: 10 miles , 16 km
Cloud details: Overcast 14000 ft
2018/08/17 02:56 KAFF 170256Z AUTO 00000KT 10SM OVC140 20/08 A3033 RMK AO2 SLP178 60000 T02030076 53005
KLMO - Longmont/Vbrand, Colorado, USA
Distance from station: NNW 45mi, 72km
Updated: Thu, 08/16/2018 9:35pm MDT
Clear
Clear
 Wind from calm
Wind: Calm
Temperature: 73°F , 23°C
Dew Point: 57°F , 14°C
Humidity: 57%
Barometer: 30.23 inHg , 1023.7 hPa
Clouds: Clear
Visibility: 10 miles , 16 km
2018/08/17 03:35 KLMO 170335Z AUTO 00000KT 10SM CLR 23/14 A3023 RMK AO2 T02300135
 
KFLY - Co Spngs Meadow, Colorado, USA
Distance from station: SSE 45mi, 73km
Updated: Thu, 08/16/2018 9:35pm MDT
Clear
Clear
 Wind from calm
Wind: Calm
Temperature: 64°F , 18°C
Dew Point: 45°F , 7°C
Humidity: 49%
Barometer: 30.39 inHg , 1029.1 hPa
Clouds: Clear
Visibility: 10 miles , 16 km
2018/08/17 03:35 KFLY 170335Z AUTO 00000KT 10SM CLR 18/07 A3039 RMK AO2 T01760067
K4BM - Wilkerson Pass, Colorado, USA
Distance from station: SW 48mi, 77km
Updated: Thu, 08/16/2018 9:30pm MDT
Mostly cloudy
Mostly cloudy
 Wind from SW
Wind: SW 7 mph , 11 km/h
Temperature: 52°F , 11°C
Dew Point: 36°F , 2°C
Humidity: 54%
Barometer: 30.75 inHg , 1041.3 hPa
Clouds: Mostly cloudy
Visibility: 10 miles , 16 km
Cloud details: Mostly cloudy 7000 ft
2018/08/17 03:30 K4BM 170330Z AUTO 22006KT 10SM BKN070 11/02 A3075 RMK AO2 LTG DSNT NW
 
K0CO - Berthoud Pass, Colorado, USA
Distance from station: WNW 49mi, 79km
Updated: Thu, 08/16/2018 9:48pm MDT
Clear
Clear
 Wind from SE
Wind: SE 8 mph , 13 km/h
Temperature: 45°F , 7°C
Wind Chill: 41°F , 5°C
Dew Point: 32°F , 0°C
Humidity: 61%
Barometer: 30.79 inHg , 1042.7 hPa
Clouds: Clear
Visibility: 10 miles , 16 km
2018/08/17 03:48 K0CO 170348Z AUTO 13007KT 10SM CLR 07/00 A3079 RMK AO2